createdAt,value
2018-08-25T00:01:48.031Z,16.28
2018-08-25T00:04:16.123Z,16.28
2018-08-25T00:06:44.203Z,16.28
2018-08-25T00:09:12.482Z,16.18
2018-08-25T00:11:40.562Z,16.11
2018-08-25T00:14:08.645Z,16.10
2018-08-25T00:16:37.118Z,16.03
2018-08-25T00:19:05.363Z,16.00
2018-08-25T00:21:33.439Z,15.99
2018-08-25T00:24:01.703Z,15.90
2018-08-25T00:26:29.787Z,15.80
2018-08-25T00:28:57.866Z,15.79
2018-08-25T00:31:26.273Z,15.82
2018-08-25T00:33:55.246Z,15.84
2018-08-25T00:36:23.860Z,15.87
2018-08-25T00:38:52.143Z,15.87
2018-08-25T00:41:20.278Z,15.88
2018-08-25T00:43:48.371Z,15.85
2018-08-25T00:46:16.981Z,15.81
2018-08-25T00:48:45.177Z,15.72
2018-08-25T00:51:13.319Z,15.72
2018-08-25T00:53:41.407Z,15.70
2018-08-25T00:56:09.497Z,15.72
2018-08-25T00:58:37.566Z,15.73
2018-08-25T01:01:05.799Z,15.72
2018-08-25T01:03:33.880Z,15.71
2018-08-25T01:06:01.963Z,15.66
2018-08-25T01:08:30.036Z,15.68
2018-08-25T01:10:58.117Z,15.60
2018-08-25T01:13:26.206Z,15.55
2018-08-25T01:15:54.350Z,15.54
2018-08-25T01:18:22.419Z,15.54
2018-08-25T01:20:50.891Z,15.58
2018-08-25T01:23:19.011Z,15.61
2018-08-25T01:25:47.128Z,15.63
2018-08-25T01:28:15.254Z,15.63
2018-08-25T01:30:43.326Z,15.62
2018-08-25T01:33:11.514Z,15.60
2018-08-25T01:35:39.624Z,15.64
2018-08-25T01:38:07.879Z,15.65
2018-08-25T01:40:35.950Z,15.65
2018-08-25T01:43:04.935Z,15.68
2018-08-25T01:45:33.013Z,15.69
2018-08-25T01:48:01.143Z,15.71
2018-08-25T01:50:29.235Z,15.73
2018-08-25T01:52:57.343Z,15.75
2018-08-25T01:55:25.451Z,15.75
2018-08-25T01:57:53.512Z,15.77
2018-08-25T02:00:21.583Z,15.78
2018-08-25T02:02:49.865Z,15.79
2018-08-25T02:05:17.856Z,15.79
2018-08-25T02:07:45.911Z,15.78
2018-08-25T02:10:14.195Z,15.75
2018-08-25T02:12:42.258Z,15.68
2018-08-25T02:15:10.331Z,15.66
2018-08-25T02:17:38.447Z,15.68
2018-08-25T02:20:06.586Z,15.65
2018-08-25T02:22:34.662Z,15.66
2018-08-25T02:25:02.742Z,15.65
2018-08-25T02:27:30.811Z,15.64
2018-08-25T02:29:59.032Z,15.64
2018-08-25T02:32:27.128Z,15.60
2018-08-25T02:34:55.187Z,15.55
2018-08-25T02:37:23.266Z,15.51
2018-08-25T02:39:51.333Z,15.43
2018-08-25T02:42:25.815Z,15.41
2018-08-25T02:44:53.875Z,15.35
2018-08-25T02:47:21.945Z,15.31
2018-08-25T02:49:50.055Z,15.28
2018-08-25T02:52:18.198Z,15.15
2018-08-25T02:54:46.320Z,15.09
2018-08-25T02:57:14.418Z,15.02
2018-08-25T02:59:42.481Z,14.85
2018-08-25T03:02:10.553Z,14.70
2018-08-25T03:04:38.610Z,14.60
2018-08-25T03:07:06.970Z,14.50
2018-08-25T03:09:35.114Z,14.38
2018-08-25T03:12:03.238Z,14.32
2018-08-25T03:14:31.502Z,14.20
2018-08-25T03:16:59.566Z,14.15
2018-08-25T03:19:27.648Z,14.16
2018-08-25T03:21:55.887Z,14.14
2018-08-25T03:24:23.992Z,14.19
2018-08-25T03:26:52.112Z,14.22
2018-08-25T03:29:20.176Z,14.23
2018-08-25T03:31:48.399Z,14.20
2018-08-25T03:34:16.466Z,14.11
2018-08-25T03:36:44.569Z,14.07
2018-08-25T03:39:13.074Z,14.04
2018-08-25T03:41:41.350Z,14.12
2018-08-25T03:44:10.553Z,14.18
2018-08-25T03:46:38.631Z,14.15
2018-08-25T03:49:06.783Z,14.21
2018-08-25T03:51:34.846Z,14.25
2018-08-25T03:54:02.989Z,14.25
2018-08-25T03:56:31.094Z,14.29
2018-08-25T03:58:59.154Z,14.34
2018-08-25T04:01:27.397Z,14.39
2018-08-25T04:03:55.447Z,14.42
2018-08-25T04:06:23.544Z,14.48
2018-08-25T04:08:51.626Z,14.46
2018-08-25T04:11:19.726Z,14.48
2018-08-25T04:13:52.306Z,14.48
2018-08-25T04:16:20.490Z,14.37
2018-08-25T04:18:48.566Z,14.37
2018-08-25T04:21:16.787Z,14.36
2018-08-25T04:23:44.849Z,14.34
2018-08-25T04:26:12.946Z,14.33
2018-08-25T04:28:41.058Z,14.36
2018-08-25T04:31:09.104Z,14.35
2018-08-25T04:33:37.305Z,14.33
2018-08-25T04:36:05.401Z,14.22
2018-08-25T04:38:33.475Z,14.15
2018-08-25T04:41:01.600Z,14.03
2018-08-25T04:43:29.670Z,13.97
2018-08-25T04:45:57.750Z,13.97
2018-08-25T04:48:25.827Z,13.95
2018-08-25T04:50:54.702Z,13.96
2018-08-25T04:53:22.803Z,13.96
2018-08-25T04:55:50.873Z,13.97
2018-08-25T04:58:18.939Z,13.93
2018-08-25T05:00:47.060Z,13.95
2018-08-25T05:03:15.136Z,13.90
2018-08-25T05:05:43.252Z,13.89
2018-08-25T05:08:11.307Z,13.90
2018-08-25T05:10:39.383Z,13.88
2018-08-25T05:13:07.618Z,13.79
2018-08-25T05:15:35.685Z,13.72
2018-08-25T05:18:03.756Z,13.62
2018-08-25T05:20:31.856Z,13.51
2018-08-25T05:22:59.923Z,13.51
2018-08-25T05:25:27.994Z,13.49
2018-08-25T05:27:56.350Z,13.45
2018-08-25T05:30:24.431Z,13.39
2018-08-25T05:32:52.717Z,13.41
2018-08-25T05:35:20.871Z,13.39
2018-08-25T05:37:48.950Z,13.35
2018-08-25T05:40:17.118Z,13.27
2018-08-25T05:42:45.188Z,13.22
2018-08-25T05:45:13.280Z,13.17
2018-08-25T05:47:41.366Z,13.15
2018-08-25T05:50:09.443Z,13.14
2018-08-25T05:52:37.498Z,13.16
2018-08-25T05:55:05.631Z,13.18
2018-08-25T05:57:33.791Z,13.14
2018-08-25T06:00:01.806Z,13.12
2018-08-25T06:02:30.096Z,13.11
2018-08-25T06:04:58.202Z,13.09
2018-08-25T06:07:26.453Z,13.06
2018-08-25T06:09:54.924Z,13.00
2018-08-25T06:12:23.353Z,12.95
2018-08-25T06:14:51.441Z,12.91
2018-08-25T06:17:19.760Z,12.95
2018-08-25T06:19:47.847Z,12.98
2018-08-25T06:22:15.938Z,13.03
2018-08-25T06:24:44.040Z,13.06
2018-08-25T06:27:12.162Z,13.08
2018-08-25T06:29:40.327Z,13.09
2018-08-25T06:32:08.347Z,13.08
2018-08-25T06:34:36.591Z,13.09
2018-08-25T06:37:05.252Z,13.08
2018-08-25T06:39:33.419Z,13.09
2018-08-25T06:42:01.735Z,13.17
2018-08-25T06:44:29.849Z,13.21
2018-08-25T06:46:58.054Z,13.28
2018-08-25T06:49:26.165Z,13.37
2018-08-25T06:51:54.613Z,13.41
2018-08-25T06:54:22.826Z,13.44
2018-08-25T06:56:50.919Z,13.44
2018-08-25T06:59:19.243Z,13.44
2018-08-25T07:01:47.682Z,13.41
2018-08-25T07:04:15.747Z,13.40
2018-08-25T07:06:43.923Z,13.41
2018-08-25T07:09:12.897Z,13.47
2018-08-25T07:11:42.052Z,13.48
2018-08-25T07:14:10.604Z,13.50
2018-08-25T07:16:38.713Z,13.61
2018-08-25T07:19:06.859Z,13.67
2018-08-25T07:21:34.852Z,13.65
2018-08-25T07:24:02.955Z,13.68
2018-08-25T07:26:31.155Z,13.69
2018-08-25T07:28:59.249Z,13.68
2018-08-25T07:31:27.543Z,13.67
2018-08-25T07:33:55.612Z,13.69
2018-08-25T07:36:23.709Z,13.68
2018-08-25T07:38:51.782Z,13.64
2018-08-25T07:41:20.104Z,13.68
2018-08-25T07:43:48.161Z,13.69
2018-08-25T07:46:16.274Z,13.63
2018-08-25T07:48:44.596Z,13.58
2018-08-25T07:51:12.663Z,13.51
2018-08-25T07:53:40.752Z,13.52
2018-08-25T07:56:09.131Z,13.56
2018-08-25T07:58:37.503Z,13.61
2018-08-25T08:01:05.527Z,13.66
2018-08-25T08:03:33.597Z,13.70
2018-08-25T08:06:01.938Z,13.70
2018-08-25T08:08:30.009Z,13.65
2018-08-25T08:10:58.093Z,13.71
2018-08-25T08:13:26.189Z,13.76
2018-08-25T08:15:54.280Z,13.82
2018-08-25T08:18:22.343Z,13.88
2018-08-25T08:20:50.591Z,13.90
2018-08-25T08:23:18.658Z,13.93
2018-08-25T08:25:46.768Z,13.96
2018-08-25T08:28:14.848Z,13.96
2018-08-25T08:30:42.911Z,14.03
2018-08-25T08:33:10.996Z,14.13
2018-08-25T08:35:39.086Z,14.26
2018-08-25T08:38:07.147Z,14.38
2018-08-25T08:40:35.565Z,14.52
2018-08-25T08:43:04.692Z,14.75
2018-08-25T08:45:32.931Z,14.92
2018-08-25T08:48:00.969Z,14.98
2018-08-25T08:50:29.121Z,15.07
2018-08-25T08:52:57.118Z,14.97
2018-08-25T08:55:25.201Z,14.94
2018-08-25T08:57:56.490Z,14.93
2018-08-25T09:00:24.572Z,14.85
2018-08-25T09:02:52.906Z,14.90
2018-08-25T09:05:21.188Z,15.08
2018-08-25T09:07:49.639Z,15.41
2018-08-25T09:10:17.944Z,15.68
2018-08-25T09:12:46.035Z,15.98
2018-08-25T09:15:14.108Z,16.22
2018-08-25T09:17:42.347Z,16.27
2018-08-25T09:20:10.543Z,16.31
2018-08-25T09:22:38.607Z,16.59
2018-08-25T09:25:06.973Z,16.82
2018-08-25T09:27:35.068Z,16.84
2018-08-25T09:30:03.298Z,16.92
2018-08-25T09:32:31.522Z,17.15
2018-08-25T09:35:00.632Z,17.46
2018-08-25T09:37:28.696Z,17.58
2018-08-25T09:39:56.801Z,17.51
2018-08-25T09:42:24.877Z,17.67
2018-08-25T09:44:52.978Z,17.63
2018-08-25T09:47:21.239Z,17.92
2018-08-25T09:49:49.871Z,18.17
2018-08-25T09:52:18.015Z,17.99
2018-08-25T09:54:46.588Z,18.11
2018-08-25T09:57:14.686Z,18.52
2018-08-25T09:59:42.766Z,18.68
2018-08-25T10:02:11.129Z,18.73
2018-08-25T10:04:39.485Z,18.74
2018-08-25T10:07:08.052Z,18.89
2018-08-25T10:09:36.293Z,19.03
2018-08-25T10:12:05.059Z,18.97
2018-08-25T10:14:33.115Z,19.18
2018-08-25T10:17:01.210Z,19.16
2018-08-25T10:19:29.901Z,19.19
2018-08-25T10:21:58.031Z,19.33
2018-08-25T10:24:26.103Z,19.40
2018-08-25T10:26:54.175Z,19.29
2018-08-25T10:29:22.372Z,19.20
2018-08-25T10:31:50.436Z,19.46
2018-08-25T10:34:18.580Z,19.83
2018-08-25T10:36:46.774Z,19.95
2018-08-25T10:39:14.963Z,20.16
2018-08-25T10:41:43.106Z,20.26
2018-08-25T10:44:11.469Z,20.23
2018-08-25T10:46:40.266Z,20.12
2018-08-25T10:49:09.062Z,20.00
2018-08-25T10:51:43.524Z,19.82
2018-08-25T10:54:11.695Z,19.66
2018-08-25T10:56:39.767Z,19.53
2018-08-25T10:59:07.824Z,19.61
2018-08-25T11:01:35.890Z,19.64
2018-08-25T11:04:05.074Z,19.53
2018-08-25T11:06:33.168Z,19.63
2018-08-25T11:09:01.620Z,19.73
2018-08-25T11:11:29.691Z,20.00
2018-08-25T11:13:57.827Z,20.47
2018-08-25T11:16:26.004Z,20.62
2018-08-25T11:18:54.044Z,20.47
2018-08-25T11:21:22.585Z,20.42
2018-08-25T11:23:50.839Z,20.26
2018-08-25T11:26:18.802Z,20.02
2018-08-25T11:28:47.105Z,19.83
2018-08-25T11:31:15.177Z,19.80
2018-08-25T11:33:43.283Z,19.81
2018-08-25T11:36:11.524Z,19.75
2018-08-25T11:38:39.615Z,19.87
2018-08-25T11:41:07.724Z,20.11
2018-08-25T11:43:35.944Z,20.18
2018-08-25T11:46:04.025Z,20.07
2018-08-25T11:48:32.087Z,19.94
2018-08-25T11:51:00.169Z,19.80
2018-08-25T11:53:28.258Z,19.68
2018-08-25T11:55:56.340Z,19.42
2018-08-25T11:58:24.663Z,19.15
2018-08-25T12:00:52.742Z,18.90
2018-08-25T12:03:20.945Z,18.61
2018-08-25T12:05:49.070Z,18.44
2018-08-25T12:08:17.144Z,18.34
2018-08-25T12:10:45.262Z,18.29
2018-08-25T12:13:13.948Z,18.31
2018-08-25T12:15:42.018Z,18.13
2018-08-25T12:18:10.444Z,18.14
2018-08-25T12:20:38.527Z,17.91
2018-08-25T12:23:06.578Z,17.68
2018-08-25T12:25:34.680Z,17.40
2018-08-25T12:28:03.075Z,17.06
2018-08-25T12:30:31.179Z,16.95
2018-08-25T12:32:59.236Z,16.88
2018-08-25T12:35:27.339Z,16.76
2018-08-25T12:37:55.453Z,16.74
2018-08-25T12:40:23.564Z,16.62
2018-08-25T12:42:51.663Z,16.64
2018-08-25T12:45:19.754Z,16.64
2018-08-25T12:47:47.834Z,16.71
2018-08-25T12:50:16.216Z,16.87
2018-08-25T12:52:44.347Z,17.11
2018-08-25T12:55:12.755Z,17.24
2018-08-25T12:57:41.347Z,17.32
2018-08-25T13:00:09.759Z,17.30
2018-08-25T13:02:37.834Z,17.38
2018-08-25T13:05:06.119Z,17.40
2018-08-25T13:07:34.282Z,17.48
2018-08-25T13:10:02.372Z,17.56
2018-08-25T13:12:30.445Z,17.58
2018-08-25T13:14:58.527Z,17.47
2018-08-25T13:17:26.602Z,17.43
2018-08-25T13:19:54.869Z,17.48
2018-08-25T13:22:23.281Z,17.55
2018-08-25T13:24:51.396Z,17.57
2018-08-25T13:27:19.507Z,17.69
2018-08-25T13:29:47.735Z,17.78
2018-08-25T13:32:15.819Z,17.76
2018-08-25T13:34:43.966Z,17.78
2018-08-25T13:37:12.007Z,18.02
2018-08-25T13:39:40.129Z,18.25
2018-08-25T13:42:08.228Z,18.20
2018-08-25T13:44:36.327Z,18.08
2018-08-25T13:47:05.418Z,18.03
2018-08-25T13:49:34.354Z,18.05
2018-08-25T13:52:02.456Z,18.11
2018-08-25T13:54:30.707Z,18.23
2018-08-25T13:56:59.705Z,18.30
2018-08-25T13:59:27.820Z,18.44
2018-08-25T14:01:55.901Z,18.61
2018-08-25T14:04:24.531Z,18.63
2018-08-25T14:06:52.559Z,18.50
2018-08-25T14:09:20.631Z,18.32
2018-08-25T14:11:48.747Z,18.22
2018-08-25T14:14:16.819Z,18.05
2018-08-25T14:16:44.902Z,17.84
2018-08-25T14:19:13.026Z,17.66
2018-08-25T14:21:41.122Z,17.48
2018-08-25T14:24:09.208Z,17.40
2018-08-25T14:26:37.301Z,17.34
2018-08-25T14:29:05.478Z,17.26
2018-08-25T14:31:33.560Z,17.17
2018-08-25T14:34:01.849Z,17.10
2018-08-25T14:36:29.935Z,17.06
2018-08-25T14:38:58.004Z,17.03
2018-08-25T14:41:26.116Z,16.99
2018-08-25T14:43:54.207Z,17.03
2018-08-25T14:46:22.272Z,17.09
2018-08-25T14:48:50.503Z,17.10
2018-08-25T14:51:18.580Z,17.14
2018-08-25T14:53:46.672Z,17.13
2018-08-25T14:56:14.943Z,17.12
2018-08-25T14:58:43.019Z,17.08
2018-08-25T15:01:11.087Z,16.95
2018-08-25T15:03:39.183Z,16.90
2018-08-25T15:06:07.329Z,16.89
2018-08-25T15:08:35.583Z,16.92
2018-08-25T15:11:04.744Z,16.96
2018-08-25T15:13:32.845Z,16.98
2018-08-25T15:16:00.951Z,16.95
2018-08-25T15:18:29.163Z,16.85
2018-08-25T15:20:57.235Z,16.63
2018-08-25T15:23:25.837Z,16.49
2018-08-25T15:25:53.935Z,16.24
2018-08-25T15:28:22.031Z,15.99
2018-08-25T15:30:50.133Z,15.79
2018-08-25T15:33:18.243Z,15.62
2018-08-25T15:35:46.316Z,15.59
2018-08-25T15:38:14.560Z,15.56
2018-08-25T15:40:42.659Z,15.50
2018-08-25T15:43:10.734Z,15.51
2018-08-25T15:45:38.796Z,15.57
2018-08-25T15:48:06.888Z,15.63
2018-08-25T15:50:34.951Z,15.71
2018-08-25T15:53:03.067Z,15.84
2018-08-25T15:55:31.277Z,16.01
2018-08-25T15:57:59.471Z,16.14
2018-08-25T16:00:34.576Z,16.30
2018-08-25T16:03:02.659Z,16.40
2018-08-25T16:05:30.755Z,16.49
2018-08-25T16:07:58.853Z,16.59
2018-08-25T16:10:26.976Z,16.74
2018-08-25T16:12:55.261Z,16.77
2018-08-25T16:15:23.390Z,16.70
2018-08-25T16:17:51.652Z,16.64
2018-08-25T16:20:19.758Z,16.60
2018-08-25T16:22:47.840Z,16.57
2018-08-25T16:25:15.952Z,16.52
2018-08-25T16:27:44.589Z,16.43
2018-08-25T16:30:12.651Z,16.38
2018-08-25T16:32:40.782Z,16.12
2018-08-25T16:35:08.916Z,15.84
2018-08-25T16:37:37.012Z,15.62
2018-08-25T16:40:05.093Z,15.45
2018-08-25T16:42:33.440Z,15.31
2018-08-25T16:45:01.724Z,15.15
2018-08-25T16:47:29.852Z,15.00
2018-08-25T16:49:58.174Z,14.96
2018-08-25T16:52:26.318Z,14.94
2018-08-25T16:54:54.416Z,14.87
2018-08-25T16:57:22.504Z,14.81
2018-08-25T16:59:50.630Z,14.74
2018-08-25T17:02:18.800Z,14.68
2018-08-25T17:04:50.308Z,14.71
2018-08-25T17:07:18.938Z,14.63
2018-08-25T17:09:47.015Z,14.67
2018-08-25T17:12:15.509Z,14.73
2018-08-25T17:14:43.726Z,14.74
2018-08-25T17:17:11.832Z,14.74
2018-08-25T17:19:39.910Z,14.75
2018-08-25T17:22:08.296Z,14.67
2018-08-25T17:24:36.424Z,14.60
2018-08-25T17:27:05.347Z,14.62
2018-08-25T17:29:33.429Z,14.63
2018-08-25T17:32:01.536Z,14.62
2018-08-25T17:34:29.943Z,14.64
2018-08-25T17:36:58.249Z,14.69
2018-08-25T17:39:26.324Z,14.70
2018-08-25T17:41:54.385Z,14.67
2018-08-25T17:44:22.589Z,14.64
2018-08-25T17:46:50.729Z,14.64
2018-08-25T17:49:18.909Z,14.60
2018-08-25T17:51:46.983Z,14.58
2018-08-25T17:54:15.104Z,14.45
2018-08-25T17:56:44.220Z,14.34
2018-08-25T17:59:12.308Z,14.34
2018-08-25T18:01:40.444Z,14.30
2018-08-25T18:04:08.899Z,14.28
2018-08-25T18:06:36.987Z,14.26
2018-08-25T18:09:06.135Z,14.27
2018-08-25T18:11:34.232Z,14.28
2018-08-25T18:14:02.340Z,14.23
2018-08-25T18:16:30.425Z,14.23
2018-08-25T18:18:58.511Z,14.29
2018-08-25T18:21:26.601Z,14.34
2018-08-25T18:23:54.711Z,14.37
2018-08-25T18:26:22.800Z,14.41
2018-08-25T18:28:51.373Z,14.40
2018-08-25T18:31:19.495Z,14.39
2018-08-25T18:33:47.576Z,14.32
2018-08-25T18:36:15.659Z,14.29
2018-08-25T18:38:43.791Z,14.30
2018-08-25T18:41:11.914Z,14.26
2018-08-25T18:43:40.027Z,14.29
2018-08-25T18:46:08.124Z,14.34
2018-08-25T18:48:36.262Z,14.37
2018-08-25T18:51:04.882Z,14.41
2018-08-25T18:53:32.960Z,14.45
2018-08-25T18:56:01.233Z,14.46
2018-08-25T18:58:29.548Z,14.39
2018-08-25T19:00:57.620Z,14.34
2018-08-25T19:03:25.755Z,14.28
2018-08-25T19:05:53.831Z,14.23
2018-08-25T19:08:21.926Z,14.15
2018-08-25T19:10:50.040Z,14.13
2018-08-25T19:13:18.423Z,14.09
2018-08-25T19:15:46.566Z,14.07
2018-08-25T19:18:14.652Z,14.09
2018-08-25T19:20:42.796Z,14.07
2018-08-25T19:23:10.867Z,14.11
2018-08-25T19:25:38.963Z,14.11
2018-08-25T19:28:07.078Z,14.06
2018-08-25T19:30:35.147Z,13.97
2018-08-25T19:33:03.285Z,13.93
2018-08-25T19:35:31.430Z,13.86
2018-08-25T19:38:00.010Z,13.82
2018-08-25T19:40:28.083Z,13.82
2018-08-25T19:42:56.313Z,13.82
2018-08-25T19:45:24.436Z,13.82
2018-08-25T19:47:52.685Z,13.84
2018-08-25T19:50:20.877Z,13.83
2018-08-25T19:52:49.005Z,13.76
2018-08-25T19:55:17.134Z,13.76
2018-08-25T19:57:45.217Z,13.75
2018-08-25T20:00:13.389Z,13.73
2018-08-25T20:02:41.420Z,13.68
2018-08-25T20:05:09.567Z,13.58
2018-08-25T20:07:37.906Z,13.53
2018-08-25T20:10:06.403Z,13.50
2018-08-25T20:12:35.163Z,13.51
2018-08-25T20:15:03.264Z,13.66
2018-08-25T20:17:31.342Z,13.64
2018-08-25T20:19:59.502Z,13.54
2018-08-25T20:22:27.566Z,13.47
2018-08-25T20:24:55.657Z,13.42
2018-08-25T20:27:23.803Z,13.37
2018-08-25T20:29:51.896Z,13.36
2018-08-25T20:32:20.243Z,13.35
2018-08-25T20:34:48.572Z,13.32
2018-08-25T20:37:16.664Z,13.30
2018-08-25T20:39:44.740Z,13.27
2018-08-25T20:42:13.090Z,13.21
2018-08-25T20:44:41.524Z,13.19
2018-08-25T20:47:09.611Z,13.16
2018-08-25T20:49:38.242Z,13.15
2018-08-25T20:52:06.348Z,13.17
2018-08-25T20:54:34.451Z,13.13
2018-08-25T20:57:02.530Z,13.07
2018-08-25T20:59:30.832Z,13.04
2018-08-25T21:01:58.893Z,12.97
2018-08-25T21:04:26.987Z,12.97
2018-08-25T21:06:55.218Z,12.94
2018-08-25T21:09:23.491Z,12.94
2018-08-25T21:11:51.786Z,12.96
2018-08-25T21:14:19.852Z,12.95
2018-08-25T21:16:47.931Z,12.90
2018-08-25T21:19:16.007Z,12.88
2018-08-25T21:21:44.390Z,12.88
2018-08-25T21:24:12.533Z,12.88
2018-08-25T21:26:40.586Z,12.88
2018-08-25T21:29:08.896Z,12.88
2018-08-25T21:31:36.996Z,12.91
2018-08-25T21:34:05.214Z,12.89
2018-08-25T21:36:33.319Z,12.89
2018-08-25T21:39:01.752Z,12.91
2018-08-25T21:41:29.817Z,12.89
2018-08-25T21:43:57.906Z,12.88
2018-08-25T21:46:26.313Z,12.83
2018-08-25T21:48:54.363Z,12.79
2018-08-25T21:51:22.484Z,12.74
2018-08-25T21:53:50.549Z,12.66
2018-08-25T21:56:18.618Z,12.66
2018-08-25T21:58:46.685Z,12.62
2018-08-25T22:01:15.138Z,12.60
2018-08-25T22:03:43.096Z,12.59
2018-08-25T22:06:11.219Z,12.59
2018-08-25T22:08:39.339Z,12.58
2018-08-25T22:11:07.509Z,12.55
2018-08-25T22:13:35.579Z,12.54
2018-08-25T22:16:03.708Z,12.57
2018-08-25T22:18:31.782Z,12.56
2018-08-25T22:21:00.026Z,12.55
2018-08-25T22:23:28.083Z,12.54
2018-08-25T22:25:56.167Z,12.51
2018-08-25T22:28:24.379Z,12.51
2018-08-25T22:30:52.444Z,12.48
2018-08-25T22:33:20.505Z,12.49
2018-08-25T22:35:48.576Z,12.53
2018-08-25T22:38:16.726Z,12.56
2018-08-25T22:40:44.802Z,12.53
2018-08-25T22:43:13.027Z,12.54
2018-08-25T22:45:41.118Z,12.55
2018-08-25T22:48:09.183Z,12.56
2018-08-25T22:50:37.427Z,12.55
2018-08-25T22:53:05.496Z,12.55
2018-08-25T22:55:33.556Z,12.53
2018-08-25T22:58:01.627Z,12.49
2018-08-25T23:00:29.700Z,12.47
2018-08-25T23:02:57.759Z,12.43
2018-08-25T23:05:25.827Z,12.37
2018-08-25T23:07:53.938Z,12.33
2018-08-25T23:10:22.019Z,12.27
2018-08-25T23:12:50.112Z,12.23
2018-08-25T23:15:18.214Z,12.17
2018-08-25T23:17:46.286Z,12.09
2018-08-25T23:20:14.399Z,12.03
2018-08-25T23:22:42.466Z,12.02
2018-08-25T23:25:10.539Z,11.98
2018-08-25T23:27:38.762Z,11.98
2018-08-25T23:30:06.835Z,11.98
2018-08-25T23:32:34.914Z,11.96
2018-08-25T23:35:03.007Z,11.93
2018-08-25T23:37:31.074Z,11.93
2018-08-25T23:39:59.140Z,11.94
2018-08-25T23:42:27.215Z,11.94
2018-08-25T23:44:55.276Z,11.93
2018-08-25T23:47:23.337Z,11.95
2018-08-25T23:49:51.410Z,11.95
2018-08-25T23:52:19.596Z,11.94
2018-08-25T23:54:47.672Z,11.95
2018-08-25T23:57:15.759Z,11.96
2018-08-25T23:59:43.818Z,11.95
